sensor_id;sensor_type;location;lat;lon;timestamp;temperature;humidity
23120;DHT22;11729;50.836;4.330;2023-07-28T00:01:57;19.00;99.90
23120;DHT22;11729;50.836;4.330;2023-07-28T00:04:23;18.90;99.90
23120;DHT22;11729;50.836;4.330;2023-07-28T00:06:48;18.90;99.90
23120;DHT22;11729;50.836;4.330;2023-07-28T00:09:14;18.90;99.90
23120;DHT22;11729;50.836;4.330;2023-07-28T00:11:39;18.90;99.90
23120;DHT22;11729;50.836;4.330;2023-07-28T00:14:05;19.00;99.90
23120;DHT22;11729;50.836;4.330;2023-07-28T00:16:31;19.00;99.90
23120;DHT22;11729;50.836;4.330;2023-07-28T00:18:56;18.90;99.90
23120;DHT22;11729;50.836;4.330;2023-07-28T00:21:22;18.90;99.90
23120;DHT22;11729;50.836;4.330;2023-07-28T00:23:48;18.90;99.90
23120;DHT22;11729;50.836;4.330;2023-07-28T00:26:14;18.90;99.90
23120;DHT22;11729;50.836;4.330;2023-07-28T00:28:40;18.90;99.90
23120;DHT22;11729;50.836;4.330;2023-07-28T00:31:07;18.90;99.90
23120;DHT22;11729;50.836;4.330;2023-07-28T00:33:32;18.80;99.90
23120;DHT22;11729;50.836;4.330;2023-07-28T00:35:58;18.90;99.90
23120;DHT22;11729;50.836;4.330;2023-07-28T00:38:23;18.90;99.90
23120;DHT22;11729;50.836;4.330;2023-07-28T00:40:49;18.90;99.90
23120;DHT22;11729;50.836;4.330;2023-07-28T00:43:15;18.90;99.90
23120;DHT22;11729;50.836;4.330;2023-07-28T00:45:40;18.90;99.90
23120;DHT22;11729;50.836;4.330;2023-07-28T00:48:11;18.90;99.90
23120;DHT22;11729;50.836;4.330;2023-07-28T00:50:38;18.90;99.90
23120;DHT22;11729;50.836;4.330;2023-07-28T00:53:04;19.00;99.90
23120;DHT22;11729;50.836;4.330;2023-07-28T00:55:30;18.80;99.90
23120;DHT22;11729;50.836;4.330;2023-07-28T00:57:56;18.90;99.90
23120;DHT22;11729;50.836;4.330;2023-07-28T01:00:22;18.90;99.90
23120;DHT22;11729;50.836;4.330;2023-07-28T01:02:48;18.90;99.90
23120;DHT22;11729;50.836;4.330;2023-07-28T01:05:13;18.90;99.90
23120;DHT22;11729;50.836;4.330;2023-07-28T01:08:26;18.90;99.90
23120;DHT22;11729;50.836;4.330;2023-07-28T01:10:32;18.90;99.90
23120;DHT22;11729;50.836;4.330;2023-07-28T01:12:58;18.90;99.90
23120;DHT22;11729;50.836;4.330;2023-07-28T01:15:24;19.00;99.90
23120;DHT22;11729;50.836;4.330;2023-07-28T01:17:51;18.90;99.90
23120;DHT22;11729;50.836;4.330;2023-07-28T01:20:17;19.00;99.90
23120;DHT22;11729;50.836;4.330;2023-07-28T01:25:45;18.90;99.90
23120;DHT22;11729;50.836;4.330;2023-07-28T01:28:13;19.00;99.90
23120;DHT22;11729;50.836;4.330;2023-07-28T01:30:39;19.00;99.90
23120;DHT22;11729;50.836;4.330;2023-07-28T01:33:08;19.00;99.90
23120;DHT22;11729;50.836;4.330;2023-07-28T01:35:37;19.00;99.90
23120;DHT22;11729;50.836;4.330;2023-07-28T01:38:06;19.10;99.90
23120;DHT22;11729;50.836;4.330;2023-07-28T01:40:32;19.20;99.90
23120;DHT22;11729;50.836;4.330;2023-07-28T01:42:58;19.20;99.90
23120;DHT22;11729;50.836;4.330;2023-07-28T01:45:24;19.20;99.90
23120;DHT22;11729;50.836;4.330;2023-07-28T01:47:50;19.10;99.90
23120;DHT22;11729;50.836;4.330;2023-07-28T01:50:15;19.10;99.90
23120;DHT22;11729;50.836;4.330;2023-07-28T01:52:41;19.10;99.90
23120;DHT22;11729;50.836;4.330;2023-07-28T01:55:07;19.10;99.90
23120;DHT22;11729;50.836;4.330;2023-07-28T01:57:33;19.20;99.90
23120;DHT22;11729;50.836;4.330;2023-07-28T01:59:59;19.20;99.90
23120;DHT22;11729;50.836;4.330;2023-07-28T02:02:25;19.20;99.90
23120;DHT22;11729;50.836;4.330;2023-07-28T02:04:50;19.20;99.90
23120;DHT22;11729;50.836;4.330;2023-07-28T02:07:16;19.10;99.90
23120;DHT22;11729;50.836;4.330;2023-07-28T02:09:42;19.10;99.90
23120;DHT22;11729;50.836;4.330;2023-07-28T02:12:08;19.10;99.90
23120;DHT22;11729;50.836;4.330;2023-07-28T02:14:33;19.20;99.90
23120;DHT22;11729;50.836;4.330;2023-07-28T02:16:59;19.10;99.90
23120;DHT22;11729;50.836;4.330;2023-07-28T02:19:25;19.10;99.90
23120;DHT22;11729;50.836;4.330;2023-07-28T02:21:51;19.20;99.90
23120;DHT22;11729;50.836;4.330;2023-07-28T02:24:16;19.30;99.90
23120;DHT22;11729;50.836;4.330;2023-07-28T02:26:42;19.30;99.90
23120;DHT22;11729;50.836;4.330;2023-07-28T02:29:08;19.30;99.90
23120;DHT22;11729;50.836;4.330;2023-07-28T02:31:33;19.30;99.90
23120;DHT22;11729;50.836;4.330;2023-07-28T02:33:59;19.40;99.90
23120;DHT22;11729;50.836;4.330;2023-07-28T02:36:24;19.40;99.90
23120;DHT22;11729;50.836;4.330;2023-07-28T02:38:50;19.30;99.90
23120;DHT22;11729;50.836;4.330;2023-07-28T02:41:16;19.30;99.90
23120;DHT22;11729;50.836;4.330;2023-07-28T02:43:41;19.30;99.90
23120;DHT22;11729;50.836;4.330;2023-07-28T02:46:07;19.30;99.90
23120;DHT22;11729;50.836;4.330;2023-07-28T02:48:32;19.40;99.90
23120;DHT22;11729;50.836;4.330;2023-07-28T02:50:58;19.40;99.90
23120;DHT22;11729;50.836;4.330;2023-07-28T02:53:24;19.40;99.90
23120;DHT22;11729;50.836;4.330;2023-07-28T02:55:49;19.40;99.90
23120;DHT22;11729;50.836;4.330;2023-07-28T02:58:15;19.40;99.90
23120;DHT22;11729;50.836;4.330;2023-07-28T03:00:43;19.30;99.90
23120;DHT22;11729;50.836;4.330;2023-07-28T03:03:10;19.30;99.90
23120;DHT22;11729;50.836;4.330;2023-07-28T03:05:37;19.30;99.90
23120;DHT22;11729;50.836;4.330;2023-07-28T03:08:03;19.20;99.90
23120;DHT22;11729;50.836;4.330;2023-07-28T03:10:29;19.10;99.90
23120;DHT22;11729;50.836;4.330;2023-07-28T03:12:55;19.20;99.90
23120;DHT22;11729;50.836;4.330;2023-07-28T03:15:21;19.20;99.90
23120;DHT22;11729;50.836;4.330;2023-07-28T03:17:48;19.10;99.90
23120;DHT22;11729;50.836;4.330;2023-07-28T03:20:14;19.10;99.90
23120;DHT22;11729;50.836;4.330;2023-07-28T03:22:39;19.10;99.90
23120;DHT22;11729;50.836;4.330;2023-07-28T03:25:05;19.10;99.90
23120;DHT22;11729;50.836;4.330;2023-07-28T03:27:31;19.10;99.90
23120;DHT22;11729;50.836;4.330;2023-07-28T03:29:57;19.10;99.90
23120;DHT22;11729;50.836;4.330;2023-07-28T03:32:22;19.20;99.90
23120;DHT22;11729;50.836;4.330;2023-07-28T03:34:48;19.20;99.90
23120;DHT22;11729;50.836;4.330;2023-07-28T03:37:16;19.20;99.90
23120;DHT22;11729;50.836;4.330;2023-07-28T03:39:41;19.10;99.90
23120;DHT22;11729;50.836;4.330;2023-07-28T03:42:07;19.10;99.90
23120;DHT22;11729;50.836;4.330;2023-07-28T03:44:33;19.10;99.90
23120;DHT22;11729;50.836;4.330;2023-07-28T03:47:00;19.10;99.90
23120;DHT22;11729;50.836;4.330;2023-07-28T03:49:25;19.20;99.90
23120;DHT22;11729;50.836;4.330;2023-07-28T03:51:51;19.30;99.90
23120;DHT22;11729;50.836;4.330;2023-07-28T03:54:17;19.30;99.90
23120;DHT22;11729;50.836;4.330;2023-07-28T03:56:43;19.20;99.90
23120;DHT22;11729;50.836;4.330;2023-07-28T03:59:08;19.20;99.90
23120;DHT22;11729;50.836;4.330;2023-07-28T04:01:34;19.30;99.90
23120;DHT22;11729;50.836;4.330;2023-07-28T04:03:59;19.30;99.90
23120;DHT22;11729;50.836;4.330;2023-07-28T04:06:47;19.30;99.90
23120;DHT22;11729;50.836;4.330;2023-07-28T04:09:16;19.30;99.90
23120;DHT22;11729;50.836;4.330;2023-07-28T04:11:43;19.30;99.90
23120;DHT22;11729;50.836;4.330;2023-07-28T04:14:09;19.30;99.90
23120;DHT22;11729;50.836;4.330;2023-07-28T04:16:34;19.30;99.90
23120;DHT22;11729;50.836;4.330;2023-07-28T04:19:00;19.40;99.90
23120;DHT22;11729;50.836;4.330;2023-07-28T04:21:26;19.40;99.90
23120;DHT22;11729;50.836;4.330;2023-07-28T04:23:52;19.30;99.90
23120;DHT22;11729;50.836;4.330;2023-07-28T04:26:18;19.30;99.90
23120;DHT22;11729;50.836;4.330;2023-07-28T04:28:44;19.20;99.90
23120;DHT22;11729;50.836;4.330;2023-07-28T04:31:10;19.20;99.90
23120;DHT22;11729;50.836;4.330;2023-07-28T04:33:36;19.30;99.90
23120;DHT22;11729;50.836;4.330;2023-07-28T04:36:05;19.30;99.90
23120;DHT22;11729;50.836;4.330;2023-07-28T04:38:30;19.30;99.90
23120;DHT22;11729;50.836;4.330;2023-07-28T04:40:57;19.30;99.90
23120;DHT22;11729;50.836;4.330;2023-07-28T04:43:23;19.40;99.90
23120;DHT22;11729;50.836;4.330;2023-07-28T04:45:48;19.40;99.90
23120;DHT22;11729;50.836;4.330;2023-07-28T04:48:14;19.40;99.90
23120;DHT22;11729;50.836;4.330;2023-07-28T04:50:40;19.30;99.90
23120;DHT22;11729;50.836;4.330;2023-07-28T04:53:05;19.30;99.90
23120;DHT22;11729;50.836;4.330;2023-07-28T04:55:31;19.40;99.90
23120;DHT22;11729;50.836;4.330;2023-07-28T04:57:57;19.40;99.90
23120;DHT22;11729;50.836;4.330;2023-07-28T05:00:23;19.40;99.90
23120;DHT22;11729;50.836;4.330;2023-07-28T05:02:49;19.40;99.90
23120;DHT22;11729;50.836;4.330;2023-07-28T05:05:14;19.40;99.90
23120;DHT22;11729;50.836;4.330;2023-07-28T05:07:40;19.40;99.90
23120;DHT22;11729;50.836;4.330;2023-07-28T05:10:06;19.50;99.90
23120;DHT22;11729;50.836;4.330;2023-07-28T05:12:32;19.50;99.90
23120;DHT22;11729;50.836;4.330;2023-07-28T05:14:57;19.50;99.90
23120;DHT22;11729;50.836;4.330;2023-07-28T05:17:23;19.50;99.90
23120;DHT22;11729;50.836;4.330;2023-07-28T05:19:52;19.40;99.90
23120;DHT22;11729;50.836;4.330;2023-07-28T05:22:19;19.40;99.90
23120;DHT22;11729;50.836;4.330;2023-07-28T05:24:45;19.40;99.90
23120;DHT22;11729;50.836;4.330;2023-07-28T05:27:11;19.40;99.90
23120;DHT22;11729;50.836;4.330;2023-07-28T05:29:37;19.40;99.90
23120;DHT22;11729;50.836;4.330;2023-07-28T05:32:03;19.40;99.90
23120;DHT22;11729;50.836;4.330;2023-07-28T05:34:29;19.40;99.90
23120;DHT22;11729;50.836;4.330;2023-07-28T05:36:55;19.40;99.90
23120;DHT22;11729;50.836;4.330;2023-07-28T05:39:21;19.40;99.90
23120;DHT22;11729;50.836;4.330;2023-07-28T05:41:46;19.50;99.90
23120;DHT22;11729;50.836;4.330;2023-07-28T05:44:12;19.50;99.90
23120;DHT22;11729;50.836;4.330;2023-07-28T05:46:38;19.60;99.90
23120;DHT22;11729;50.836;4.330;2023-07-28T05:49:04;19.60;99.90
23120;DHT22;11729;50.836;4.330;2023-07-28T05:51:30;19.50;99.90
23120;DHT22;11729;50.836;4.330;2023-07-28T05:53:56;19.60;99.90
23120;DHT22;11729;50.836;4.330;2023-07-28T05:56:22;19.60;99.90
23120;DHT22;11729;50.836;4.330;2023-07-28T05:58:48;19.60;99.90
23120;DHT22;11729;50.836;4.330;2023-07-28T06:01:14;19.50;99.90
23120;DHT22;11729;50.836;4.330;2023-07-28T06:03:39;19.60;99.90
23120;DHT22;11729;50.836;4.330;2023-07-28T06:06:06;19.60;99.90
23120;DHT22;11729;50.836;4.330;2023-07-28T06:08:35;19.60;99.90
23120;DHT22;11729;50.836;4.330;2023-07-28T06:11:05;19.60;99.90
23120;DHT22;11729;50.836;4.330;2023-07-28T06:13:31;19.70;99.90
23120;DHT22;11729;50.836;4.330;2023-07-28T06:15:58;19.60;99.90
23120;DHT22;11729;50.836;4.330;2023-07-28T06:18:25;19.70;99.90
23120;DHT22;11729;50.836;4.330;2023-07-28T06:20:52;19.70;99.90
23120;DHT22;11729;50.836;4.330;2023-07-28T06:23:19;19.80;99.90
23120;DHT22;11729;50.836;4.330;2023-07-28T06:25:44;19.90;99.90
23120;DHT22;11729;50.836;4.330;2023-07-28T06:28:12;19.90;99.90
23120;DHT22;11729;50.836;4.330;2023-07-28T06:30:38;20.00;99.90
23120;DHT22;11729;50.836;4.330;2023-07-28T06:33:05;20.20;99.90
23120;DHT22;11729;50.836;4.330;2023-07-28T06:35:32;20.30;99.90
23120;DHT22;11729;50.836;4.330;2023-07-28T06:37:57;20.40;99.90
23120;DHT22;11729;50.836;4.330;2023-07-28T06:40:23;20.50;99.90
23120;DHT22;11729;50.836;4.330;2023-07-28T06:42:49;20.60;99.90
23120;DHT22;11729;50.836;4.330;2023-07-28T06:45:15;20.60;99.90
23120;DHT22;11729;50.836;4.330;2023-07-28T06:47:41;20.50;99.90
23120;DHT22;11729;50.836;4.330;2023-07-28T06:50:11;20.40;99.90
23120;DHT22;11729;50.836;4.330;2023-07-28T06:52:37;20.50;99.90
23120;DHT22;11729;50.836;4.330;2023-07-28T06:55:03;20.40;99.90
23120;DHT22;11729;50.836;4.330;2023-07-28T06:57:29;20.30;99.90
23120;DHT22;11729;50.836;4.330;2023-07-28T06:59:55;20.40;99.90
23120;DHT22;11729;50.836;4.330;2023-07-28T07:02:21;20.40;99.90
23120;DHT22;11729;50.836;4.330;2023-07-28T07:04:47;20.40;99.90
23120;DHT22;11729;50.836;4.330;2023-07-28T07:07:13;20.50;99.90
23120;DHT22;11729;50.836;4.330;2023-07-28T07:09:39;20.50;99.90
23120;DHT22;11729;50.836;4.330;2023-07-28T07:12:04;20.60;99.90
23120;DHT22;11729;50.836;4.330;2023-07-28T07:14:31;20.50;99.90
23120;DHT22;11729;50.836;4.330;2023-07-28T07:16:57;20.50;99.90
23120;DHT22;11729;50.836;4.330;2023-07-28T07:19:23;20.60;99.90
23120;DHT22;11729;50.836;4.330;2023-07-28T07:21:49;20.60;99.90
23120;DHT22;11729;50.836;4.330;2023-07-28T07:24:16;20.80;99.90
23120;DHT22;11729;50.836;4.330;2023-07-28T07:26:42;20.90;99.90
23120;DHT22;11729;50.836;4.330;2023-07-28T07:29:08;20.90;99.90
23120;DHT22;11729;50.836;4.330;2023-07-28T07:31:35;20.80;99.90
23120;DHT22;11729;50.836;4.330;2023-07-28T07:34:01;20.60;99.90
23120;DHT22;11729;50.836;4.330;2023-07-28T07:36:26;20.60;99.90
23120;DHT22;11729;50.836;4.330;2023-07-28T07:38:52;20.70;99.90
23120;DHT22;11729;50.836;4.330;2023-07-28T07:41:18;20.90;99.90
23120;DHT22;11729;50.836;4.330;2023-07-28T07:43:48;21.00;99.90
23120;DHT22;11729;50.836;4.330;2023-07-28T07:46:14;21.10;99.90
23120;DHT22;11729;50.836;4.330;2023-07-28T07:48:40;21.30;99.90
23120;DHT22;11729;50.836;4.330;2023-07-28T07:51:07;21.50;99.90
23120;DHT22;11729;50.836;4.330;2023-07-28T07:53:32;21.70;99.90
23120;DHT22;11729;50.836;4.330;2023-07-28T07:55:58;22.00;99.90
23120;DHT22;11729;50.836;4.330;2023-07-28T07:58:24;22.30;99.90
23120;DHT22;11729;50.836;4.330;2023-07-28T08:00:49;22.50;99.90
23120;DHT22;11729;50.836;4.330;2023-07-28T08:03:15;22.60;99.90
23120;DHT22;11729;50.836;4.330;2023-07-28T08:05:40;22.70;99.90
23120;DHT22;11729;50.836;4.330;2023-07-28T08:08:07;22.70;99.90
23120;DHT22;11729;50.836;4.330;2023-07-28T08:10:33;22.60;99.90
23120;DHT22;11729;50.836;4.330;2023-07-28T08:12:59;22.50;99.90
23120;DHT22;11729;50.836;4.330;2023-07-28T08:15:25;22.40;99.90
23120;DHT22;11729;50.836;4.330;2023-07-28T08:17:51;22.20;99.90
23120;DHT22;11729;50.836;4.330;2023-07-28T08:20:17;22.10;99.90
23120;DHT22;11729;50.836;4.330;2023-07-28T08:22:43;21.80;99.90
23120;DHT22;11729;50.836;4.330;2023-07-28T08:25:09;21.80;99.90
23120;DHT22;11729;50.836;4.330;2023-07-28T08:27:34;21.80;99.90
23120;DHT22;11729;50.836;4.330;2023-07-28T08:30:00;21.80;99.90
23120;DHT22;11729;50.836;4.330;2023-07-28T08:32:26;21.50;99.90
23120;DHT22;11729;50.836;4.330;2023-07-28T08:34:51;21.40;99.90
23120;DHT22;11729;50.836;4.330;2023-07-28T08:37:18;21.30;99.90
23120;DHT22;11729;50.836;4.330;2023-07-28T08:39:43;21.30;99.90
23120;DHT22;11729;50.836;4.330;2023-07-28T08:42:09;21.10;99.90
23120;DHT22;11729;50.836;4.330;2023-07-28T08:44:35;21.10;99.90
23120;DHT22;11729;50.836;4.330;2023-07-28T08:47:02;21.20;99.90
23120;DHT22;11729;50.836;4.330;2023-07-28T08:49:29;21.30;99.90
23120;DHT22;11729;50.836;4.330;2023-07-28T08:51:58;21.40;99.90
23120;DHT22;11729;50.836;4.330;2023-07-28T08:54:24;21.70;99.90
23120;DHT22;11729;50.836;4.330;2023-07-28T08:56:50;21.80;99.90
23120;DHT22;11729;50.836;4.330;2023-07-28T08:59:23;21.70;99.90
23120;DHT22;11729;50.836;4.330;2023-07-28T09:01:51;21.60;99.90
23120;DHT22;11729;50.836;4.330;2023-07-28T09:04:17;21.60;99.90
23120;DHT22;11729;50.836;4.330;2023-07-28T09:06:47;21.60;99.90
23120;DHT22;11729;50.836;4.330;2023-07-28T09:09:14;21.70;99.90
23120;DHT22;11729;50.836;4.330;2023-07-28T09:11:53;21.80;99.90
23120;DHT22;11729;50.836;4.330;2023-07-28T09:14:20;21.70;99.90
23120;DHT22;11729;50.836;4.330;2023-07-28T09:16:46;21.40;99.90
23120;DHT22;11729;50.836;4.330;2023-07-28T09:19:12;21.10;99.90
23120;DHT22;11729;50.836;4.330;2023-07-28T09:21:43;21.20;99.90
23120;DHT22;11729;50.836;4.330;2023-07-28T09:24:10;21.20;99.90
23120;DHT22;11729;50.836;4.330;2023-07-28T09:26:46;21.30;99.90
23120;DHT22;11729;50.836;4.330;2023-07-28T09:29:18;21.30;99.90
23120;DHT22;11729;50.836;4.330;2023-07-28T09:31:45;21.30;99.90
23120;DHT22;11729;50.836;4.330;2023-07-28T09:34:11;21.30;99.90
23120;DHT22;11729;50.836;4.330;2023-07-28T09:36:37;21.60;99.90
23120;DHT22;11729;50.836;4.330;2023-07-28T09:39:05;22.00;99.90
23120;DHT22;11729;50.836;4.330;2023-07-28T09:41:38;22.20;99.90
23120;DHT22;11729;50.836;4.330;2023-07-28T09:44:06;22.50;99.90
23120;DHT22;11729;50.836;4.330;2023-07-28T09:46:35;22.90;99.90
23120;DHT22;11729;50.836;4.330;2023-07-28T09:49:10;22.80;99.90
23120;DHT22;11729;50.836;4.330;2023-07-28T09:51:37;22.80;99.90
23120;DHT22;11729;50.836;4.330;2023-07-28T09:54:12;22.80;99.90
23120;DHT22;11729;50.836;4.330;2023-07-28T09:56:40;22.90;99.90
23120;DHT22;11729;50.836;4.330;2023-07-28T09:59:11;22.70;99.90
23120;DHT22;11729;50.836;4.330;2023-07-28T10:01:39;22.60;99.90
23120;DHT22;11729;50.836;4.330;2023-07-28T10:04:05;22.80;99.90
23120;DHT22;11729;50.836;4.330;2023-07-28T10:06:32;22.80;99.90
23120;DHT22;11729;50.836;4.330;2023-07-28T10:08:59;23.00;99.90
23120;DHT22;11729;50.836;4.330;2023-07-28T10:11:25;23.40;99.90
23120;DHT22;11729;50.836;4.330;2023-07-28T10:13:54;23.90;99.90
23120;DHT22;11729;50.836;4.330;2023-07-28T10:16:38;23.80;99.90
23120;DHT22;11729;50.836;4.330;2023-07-28T10:19:04;23.70;99.90
23120;DHT22;11729;50.836;4.330;2023-07-28T10:21:31;23.80;99.90
23120;DHT22;11729;50.836;4.330;2023-07-28T10:24:00;23.80;99.90
23120;DHT22;11729;50.836;4.330;2023-07-28T10:26:38;24.10;99.90
23120;DHT22;11729;50.836;4.330;2023-07-28T10:29:14;24.20;99.90
23120;DHT22;11729;50.836;4.330;2023-07-28T10:31:55;24.00;99.90
23120;DHT22;11729;50.836;4.330;2023-07-28T10:34:23;24.10;99.90
23120;DHT22;11729;50.836;4.330;2023-07-28T10:36:59;24.30;99.90
23120;DHT22;11729;50.836;4.330;2023-07-28T10:39:25;24.30;99.90
23120;DHT22;11729;50.836;4.330;2023-07-28T10:42:08;24.30;99.90
23120;DHT22;11729;50.836;4.330;2023-07-28T10:44:34;24.50;99.90
23120;DHT22;11729;50.836;4.330;2023-07-28T10:47:01;24.40;99.90
23120;DHT22;11729;50.836;4.330;2023-07-28T10:49:33;24.50;99.90
23120;DHT22;11729;50.836;4.330;2023-07-28T10:51:59;24.80;99.90
23120;DHT22;11729;50.836;4.330;2023-07-28T10:54:25;24.60;99.90
23120;DHT22;11729;50.836;4.330;2023-07-28T10:56:50;24.00;99.90
23120;DHT22;11729;50.836;4.330;2023-07-28T10:59:16;23.80;99.90
23120;DHT22;11729;50.836;4.330;2023-07-28T11:01:42;24.20;99.90
23120;DHT22;11729;50.836;4.330;2023-07-28T11:04:15;24.50;99.90
23120;DHT22;11729;50.836;4.330;2023-07-28T11:06:48;25.00;99.90
23120;DHT22;11729;50.836;4.330;2023-07-28T11:09:17;25.40;99.90
23120;DHT22;11729;50.836;4.330;2023-07-28T11:11:44;25.40;99.90
23120;DHT22;11729;50.836;4.330;2023-07-28T11:14:11;25.60;99.90
23120;DHT22;11729;50.836;4.330;2023-07-28T11:16:38;25.60;99.90
23120;DHT22;11729;50.836;4.330;2023-07-28T11:19:08;25.90;99.90
23120;DHT22;11729;50.836;4.330;2023-07-28T11:21:38;25.70;99.90
23120;DHT22;11729;50.836;4.330;2023-07-28T11:24:04;25.90;99.90
23120;DHT22;11729;50.836;4.330;2023-07-28T11:26:30;26.00;99.90
23120;DHT22;11729;50.836;4.330;2023-07-28T11:28:57;26.00;99.90
23120;DHT22;11729;50.836;4.330;2023-07-28T11:31:25;25.80;99.90
23120;DHT22;11729;50.836;4.330;2023-07-28T11:33:53;26.40;99.90
23120;DHT22;11729;50.836;4.330;2023-07-28T11:36:26;26.40;99.90
23120;DHT22;11729;50.836;4.330;2023-07-28T11:38:58;26.80;99.90
23120;DHT22;11729;50.836;4.330;2023-07-28T11:41:25;26.80;99.90
23120;DHT22;11729;50.836;4.330;2023-07-28T11:43:52;26.70;99.90
23120;DHT22;11729;50.836;4.330;2023-07-28T11:46:37;26.70;99.90
23120;DHT22;11729;50.836;4.330;2023-07-28T11:49:14;26.40;99.90
23120;DHT22;11729;50.836;4.330;2023-07-28T11:51:43;26.40;99.90
23120;DHT22;11729;50.836;4.330;2023-07-28T11:54:14;26.10;99.90
23120;DHT22;11729;50.836;4.330;2023-07-28T11:56:45;26.30;99.90
23120;DHT22;11729;50.836;4.330;2023-07-28T11:59:11;26.60;99.90
23120;DHT22;11729;50.836;4.330;2023-07-28T12:01:59;27.00;99.90
23120;DHT22;11729;50.836;4.330;2023-07-28T12:04:27;27.00;99.90
23120;DHT22;11729;50.836;4.330;2023-07-28T12:07:16;27.10;99.90
23120;DHT22;11729;50.836;4.330;2023-07-28T12:12:45;27.20;99.90
23120;DHT22;11729;50.836;4.330;2023-07-28T12:20:27;29.90;99.90
23120;DHT22;11729;50.836;4.330;2023-07-28T12:22:58;30.80;99.90
23120;DHT22;11729;50.836;4.330;2023-07-28T12:25:23;31.60;99.90
23120;DHT22;11729;50.836;4.330;2023-07-28T12:27:49;31.60;99.90
23120;DHT22;11729;50.836;4.330;2023-07-28T12:30:14;31.20;99.90
23120;DHT22;11729;50.836;4.330;2023-07-28T12:32:40;30.80;99.90
23120;DHT22;11729;50.836;4.330;2023-07-28T12:35:06;30.20;99.90
23120;DHT22;11729;50.836;4.330;2023-07-28T12:37:32;29.30;99.90
23120;DHT22;11729;50.836;4.330;2023-07-28T12:39:57;28.50;99.90
23120;DHT22;11729;50.836;4.330;2023-07-28T12:42:23;27.80;99.90
23120;DHT22;11729;50.836;4.330;2023-07-28T12:44:48;28.00;99.90
23120;DHT22;11729;50.836;4.330;2023-07-28T12:47:15;27.50;99.90
23120;DHT22;11729;50.836;4.330;2023-07-28T12:49:41;27.20;99.90
23120;DHT22;11729;50.836;4.330;2023-07-28T12:52:07;26.80;99.90
23120;DHT22;11729;50.836;4.330;2023-07-28T12:54:33;26.80;99.90
23120;DHT22;11729;50.836;4.330;2023-07-28T12:56:59;27.00;99.90
23120;DHT22;11729;50.836;4.330;2023-07-28T12:59:25;26.80;99.90
23120;DHT22;11729;50.836;4.330;2023-07-28T13:01:51;27.40;99.90
23120;DHT22;11729;50.836;4.330;2023-07-28T13:04:16;29.20;99.90
23120;DHT22;11729;50.836;4.330;2023-07-28T13:06:43;30.60;99.90
23120;DHT22;11729;50.836;4.330;2023-07-28T13:09:09;30.80;99.90
23120;DHT22;11729;50.836;4.330;2023-07-28T13:11:35;29.90;99.90
23120;DHT22;11729;50.836;4.330;2023-07-28T13:14:01;29.10;99.90
23120;DHT22;11729;50.836;4.330;2023-07-28T13:16:27;28.00;99.90
23120;DHT22;11729;50.836;4.330;2023-07-28T13:18:53;27.30;99.90
23120;DHT22;11729;50.836;4.330;2023-07-28T13:21:18;27.00;99.90
23120;DHT22;11729;50.836;4.330;2023-07-28T13:23:44;26.80;99.90
23120;DHT22;11729;50.836;4.330;2023-07-28T13:26:09;26.80;99.90
23120;DHT22;11729;50.836;4.330;2023-07-28T13:28:35;26.70;99.90
23120;DHT22;11729;50.836;4.330;2023-07-28T13:31:02;26.40;99.90
23120;DHT22;11729;50.836;4.330;2023-07-28T13:33:28;26.50;99.90
23120;DHT22;11729;50.836;4.330;2023-07-28T13:35:55;26.50;99.90
23120;DHT22;11729;50.836;4.330;2023-07-28T13:38:21;26.80;99.90
23120;DHT22;11729;50.836;4.330;2023-07-28T13:40:46;28.30;99.90
23120;DHT22;11729;50.836;4.330;2023-07-28T13:43:12;29.00;99.90
23120;DHT22;11729;50.836;4.330;2023-07-28T13:45:38;28.80;99.90
23120;DHT22;11729;50.836;4.330;2023-07-28T13:48:03;29.10;99.90
23120;DHT22;11729;50.836;4.330;2023-07-28T13:50:30;29.20;99.90
23120;DHT22;11729;50.836;4.330;2023-07-28T13:52:55;29.30;99.90
23120;DHT22;11729;50.836;4.330;2023-07-28T13:55:22;29.10;99.90
23120;DHT22;11729;50.836;4.330;2023-07-28T13:57:47;28.90;99.90
23120;DHT22;11729;50.836;4.330;2023-07-28T14:00:13;28.60;99.90
23120;DHT22;11729;50.836;4.330;2023-07-28T14:02:39;28.20;99.90
23120;DHT22;11729;50.836;4.330;2023-07-28T14:05:51;27.90;99.90
23120;DHT22;11729;50.836;4.330;2023-07-28T14:08:17;27.30;99.90
23120;DHT22;11729;50.836;4.330;2023-07-28T14:10:45;27.10;99.90
23120;DHT22;11729;50.836;4.330;2023-07-28T14:13:11;26.90;99.90
23120;DHT22;11729;50.836;4.330;2023-07-28T14:15:37;26.80;99.90
23120;DHT22;11729;50.836;4.330;2023-07-28T14:18:03;26.60;99.90
23120;DHT22;11729;50.836;4.330;2023-07-28T14:20:28;26.60;99.90
23120;DHT22;11729;50.836;4.330;2023-07-28T14:22:55;26.40;99.90
23120;DHT22;11729;50.836;4.330;2023-07-28T14:25:20;26.50;99.90
23120;DHT22;11729;50.836;4.330;2023-07-28T14:27:46;26.60;99.90
23120;DHT22;11729;50.836;4.330;2023-07-28T14:30:12;26.80;99.90
23120;DHT22;11729;50.836;4.330;2023-07-28T14:32:38;27.20;99.90
23120;DHT22;11729;50.836;4.330;2023-07-28T14:35:03;27.40;99.90
23120;DHT22;11729;50.836;4.330;2023-07-28T14:37:29;27.30;99.90
23120;DHT22;11729;50.836;4.330;2023-07-28T14:39:55;27.20;99.90
23120;DHT22;11729;50.836;4.330;2023-07-28T14:42:21;27.10;99.90
23120;DHT22;11729;50.836;4.330;2023-07-28T14:44:46;27.10;99.90
23120;DHT22;11729;50.836;4.330;2023-07-28T14:47:12;27.10;99.90
23120;DHT22;11729;50.836;4.330;2023-07-28T14:49:37;27.20;99.90
23120;DHT22;11729;50.836;4.330;2023-07-28T14:52:03;27.00;99.90
23120;DHT22;11729;50.836;4.330;2023-07-28T14:54:29;26.80;99.90
23120;DHT22;11729;50.836;4.330;2023-07-28T14:56:55;26.60;99.90
23120;DHT22;11729;50.836;4.330;2023-07-28T14:59:20;26.50;99.90
23120;DHT22;11729;50.836;4.330;2023-07-28T15:01:46;26.60;99.90
23120;DHT22;11729;50.836;4.330;2023-07-28T15:04:12;26.30;99.90
23120;DHT22;11729;50.836;4.330;2023-07-28T15:06:39;26.30;99.90
23120;DHT22;11729;50.836;4.330;2023-07-28T15:09:05;26.30;99.90
23120;DHT22;11729;50.836;4.330;2023-07-28T15:11:31;26.40;99.90
23120;DHT22;11729;50.836;4.330;2023-07-28T15:13:57;26.60;99.90
23120;DHT22;11729;50.836;4.330;2023-07-28T15:16:23;26.60;99.90
23120;DHT22;11729;50.836;4.330;2023-07-28T15:18:48;26.70;99.90
23120;DHT22;11729;50.836;4.330;2023-07-28T15:21:14;26.50;99.90
23120;DHT22;11729;50.836;4.330;2023-07-28T15:23:40;26.30;99.90
23120;DHT22;11729;50.836;4.330;2023-07-28T15:26:05;26.30;99.90
23120;DHT22;11729;50.836;4.330;2023-07-28T15:28:31;26.20;99.90
23120;DHT22;11729;50.836;4.330;2023-07-28T15:30:57;26.20;99.90
23120;DHT22;11729;50.836;4.330;2023-07-28T15:33:22;26.20;99.90
23120;DHT22;11729;50.836;4.330;2023-07-28T15:35:54;26.30;99.90
23120;DHT22;11729;50.836;4.330;2023-07-28T15:38:20;26.40;99.90
23120;DHT22;11729;50.836;4.330;2023-07-28T15:40:45;26.30;99.90